Lakeside City, Texas
Current Conditions -  °F | °C
As of 8:35 PM on Saturday 20 Dec 2014 (Local Time) from KCWC Reporting Station
Overcast Overcast  
Wind Chill: 41°   Ceiling: 2400
Heat Index: 45°   Visibility: 10mi
Dew Point: 40°   Wind: 6mph
Humidity: 85%   Direction: 130°SE
Pressure: 30.16"   Gusts: NA
Location:  33.838°N, 98.5232°W
Report Text: KCWC 210235Z AUTO 13005KT 10SM OVC024 07/05 A3016 RMK AO2 T00700046
Loading
Personal Weather Stations






























Interactive Weather Map New forecast layout! Learn more

10-Day Weather Forecast

Advertisements
Track Severe Weather on mobile